• Join FlightAware (Why Join?)
  • Login
  • US Flag 
06:40PM EDT


 

Airport Tracker/Info


-or-


 

Live Flight TrackerFlight Track Log ✈ N26572 ✈ 17-Jul-2013 ✈ 2W6 - KMDQ

Flight Track Log - Related Links

Times and Time Zones

All times are in EDT time to prevent confusion due to time zone crossing. See the N26572 flight status page for this flight to view local times or setup timezone preferences in your user account.

Time Position Orientation Groundspeed Altitude Reporting Facility
EDT Latitude Longitude Course Direction KTS MPH feet Rate Location/Type
03:17PM 38.3108 -76.5814 254° West 107 123 900  Level Washington Center
03:18PM 38.3044 -76.6103 254° West 114 131 1,500 840 Climbing Washington Center
03:19PM 38.2833 -76.6444 232° Southwest 126 145 2,300 720 Climbing Washington Center
03:20PM 38.2497 -76.6678 209° Southwest 133 153 3,000 600 Climbing Washington Center
03:21PM 38.2267 -76.6806 204° Southwest 139 160 3,400 600 Climbing Washington Center
03:22PM 38.2036 -76.7067 222° Southwest 144 166 4,000 600 Climbing Washington Center
03:22PM 38.1761 -76.7408 224° Southwest 139 160 4,600 600 Climbing Washington Center
03:24PM 38.1547 -76.7772 233° Southwest 134 154 5,300 600 Climbing Washington Center
03:25PM 38.1214 -76.7953 203° Southwest 134 154 5,900 600 Climbing Washington Center
03:25PM 38.0878 -76.8081 197° South 128 147 6,500 480 Climbing Washington Center
03:26PM 38.0522 -76.8206 195° South 134 154 6,900 540 Climbing Washington Center
03:28PM 38.0167 -76.8306 192° South 134 154 7,600 600 Climbing Washington Center
03:29PM 37.9831 -76.8431 196° South 134 154 8,200 600 Climbing Washington Center
03:29PM 37.9600 -76.8692 222° Southwest 122 140 8,800 540 Climbing Washington Center
03:31PM 37.9511 -76.9086 254° West 117 135 9,300 360 Climbing Washington Center
03:32PM 37.9403 -76.9503 252° West 123 142 9,600 360 Climbing Washington Center
03:32PM 37.9314 -76.9897 254° West 128 147 10,100 240 Climbing Washington Center
03:33PM 37.9183 -77.0369 251° West 128 147 10,100  Level Washington Center
03:34PM 37.9031 -77.0919 251° West 147 169 10,100  Level Washington Center
03:35PM 37.8987 -77.0881 251° West  Level FlightAware Approximate
03:36PM 37.8878 -77.1519 252° West 165 190 10,100  Level Washington Center
03:37PM 37.8664 -77.2017 241° Southwest 165 190 10,100  Level Washington Center
03:37PM 37.8406 -77.2536 238° Southwest 165 190 10,100  Level Washington Center
03:39PM 37.8150 -77.3006 235° Southwest 171 197 10,100 -60 Level Washington Center
03:40PM 37.7953 -77.3550 245° Southwest 171 197 10,000 -60 Descending Washington Center
03:41PM 37.7736 -77.4072 242° Southwest 171 197 10,000  Level Washington Center
03:41PM 37.7542 -77.4619 246° West 171 197 10,000  Level Washington Center
03:42PM 37.7344 -77.5139 244° Southwest 171 197 10,100  Climbing Washington Center
03:44PM 37.7169 -77.5661 247° West 171 197 10,000  Descending Washington Center
03:45PM 37.6994 -77.6181 247° West 171 197 10,100  Climbing Washington Center
03:46PM 37.6797 -77.6700 244° Southwest 171 197 10,100 -60 Level Washington Center
03:47PM 37.6622 -77.7244 248° West 171 197 10,000 -60 Descending Washington Center
03:47PM 37.6425 -77.7764 244° Southwest 171 197 10,000  Level Washington Center
03:49PM 37.6269 -77.8206 246° West 171 197 10,000  Level Washington Center
03:50PM 37.6094 -77.8700 246° West 171 197 10,000  Level Washington Center
03:51PM 37.5917 -77.9219 247° West 166 191 10,000  Level Washington Center
03:51PM 37.5742 -77.9711 246° West 166 191 10,000  Level Washington Center
03:53PM 37.5564 -78.0256 248° West 166 191 10,000  Level Washington Center
03:54PM 37.5383 -78.0800 247° West 171 197 10,000  Level Washington Center
03:55PM 37.5186 -78.1317 244° Southwest 171 197 10,000  Level Washington Center
03:56PM 37.5028 -78.1886 251° West 171 197 10,100  Climbing Washington Center
03:57PM 37.4828 -78.2431 245° Southwest 171 197 10,100 -180 Level Washington Center
03:58PM 37.4628 -78.3000 246° West 171 197 9,800 -180 Descending Washington Center
03:58PM 37.4428 -78.3542 245° Southwest 171 197 9,800  Level Washington Center
04:00PM 37.4247 -78.4083 247° West 171 197 9,800  Level Washington Center
04:01PM 37.4069 -78.4625 248° West 171 197 9,800 120 Level Washington Center
04:02PM 37.3889 -78.5142 246° West 171 197 10,100 120 Climbing Washington Center
04:03PM 37.3731 -78.5606 247° West 171 197 10,100  Level Washington Center
04:03PM 37.3531 -78.6122 244° Southwest 171 197 10,100  Level Washington Center
04:05PM 37.3353 -78.6611 245° Southwest 171 197 10,100  Level Washington Center
04:06PM 37.3128 -78.7150 242° Southwest 171 197 10,100  Level Washington Center
04:07PM 37.2928 -78.7717 246° West 171 197 10,100  Level Washington Center
04:08PM 37.2703 -78.8228 241° Southwest 171 197 10,100  Level Washington Center
04:08PM 37.2544 -78.8744 249° West 171 197 10,100  Level Washington Center
04:10PM 37.2364 -78.9206 244° Southwest 171 197 10,100  Level Washington Center
04:11PM 37.2225 -78.9722 251° West 171 197 10,100  Level Washington Center
04:12PM 37.2086 -79.0236 251° West 166 191 10,200  Climbing Washington Center
04:12PM 37.1861 -79.0722 240° Southwest 166 191 10,100 -60 Descending Washington Center
04:14PM 37.1658 -79.1286 246° West 166 191 10,100  Level Washington Center
04:15PM 37.1478 -79.1747 244° Southwest 166 191 10,100  Level Washington Center
04:15PM 37.1275 -79.2258 244° Southwest 166 191 10,100  Level Washington Center
04:16PM 37.1133 -79.2772 251° West 166 191 10,200  Climbing Washington Center
04:18PM 37.1119 -79.3242 268° West 160 184 10,100 -60 Descending Washington Center
04:19PM 37.1019 -79.3758 256° West 160 184 10,100  Level Washington Center
04:19PM 37.0961 -79.4300 262° West 160 184 10,100  Level Washington Center
04:21PM 37.0900 -79.4844 262° West 160 184 10,100  Level Washington Center
04:22PM 37.0881 -79.5469 268° West 160 184 10,100  Level Washington Center
04:22PM 37.0819 -79.6039 262° West 160 184 10,100  Level Washington Center
04:24PM 37.0758 -79.6583 262° West 160 184 10,100  Level Washington Center
04:25PM 37.0719 -79.7153 265° West 160 184 10,100  Level Washington Center
04:26PM 37.0656 -79.7747 262° West 165 190 10,100  Level Washington Center
04:28PM 37.0547 -79.8861 263° West  Level FlightAware Approximate
04:31PM 37.0358 -80.1022 263° West 166 191 10,100  Level Atlanta Center
04:32PM 37.0314 -80.1597 264° West 161 185 10,100  Level Atlanta Center
04:33PM 37.0247 -80.2119 261° West 161 185 10,100  Level Atlanta Center
04:34PM 37.0181 -80.2694 262° West 161 185 10,100  Level Atlanta Center
04:35PM 37.0157 -80.2789 263° West  Level FlightAware Approximate
04:35PM 37.0133 -80.3192 263° West 166 191 10,100  Level Atlanta Center
04:36PM 37.0100 -80.3349 263° West  Level FlightAware Approximate
04:36PM 37.0086 -80.3714 264° West 161 185 10,100  Level Atlanta Center
04:37PM 37.0039 -80.4261 264° West 161 185 10,100  Level Atlanta Center
04:38PM 36.9972 -80.4808 261° West 161 185 10,100  Level Atlanta Center
04:39PM 36.9928 -80.5436 265° West 161 185 10,100  Level Atlanta Center
04:40PM 36.9881 -80.6008 264° West 161 185 10,100  Level Atlanta Center
04:41PM 36.9814 -80.6531 261° West 161 185 10,100  Level Atlanta Center
04:42PM 36.9531 -80.6881 225° Southwest 155 178 10,100 -60 Level Atlanta Center
04:43PM 36.9208 -80.7258 223° Southwest 155 178 10,000 -60 Descending Atlanta Center
04:44PM 36.9075 -80.7836 254° West 165 190 10,000  Level Atlanta Center
04:45PM 36.9028 -80.8383 264° West 165 190 10,100  Climbing Atlanta Center
04:46PM 36.8961 -80.9033 263° West 171 197 10,100  Level Atlanta Center
04:47PM 36.8850 -80.9608 256° West 171 197 10,100  Level Atlanta Center
04:48PM 36.8742 -81.0211 257° West 177 204 10,100  Level Atlanta Center
04:49PM 36.8650 -81.0758 258° West 177 204 10,100  Level Atlanta Center
04:50PM 36.8536 -81.1281 255° West 177 204 10,100  Level Atlanta Center
04:51PM 36.8447 -81.1856 259° West 177 204 10,100  Level Atlanta Center
04:52PM 36.8336 -81.2456 257° West 182 209 10,100  Level Atlanta Center
04:53PM 36.8225 -81.3083 258° West 182 209 10,100  Level Atlanta Center
04:54PM 36.8133 -81.3681 259° West 182 209 10,100  Level Atlanta Center
04:55PM 36.8019 -81.4256 256° West 182 209 10,100  Level Atlanta Center
04:56PM 36.7928 -81.4828 259° West 182 209 10,100  Level Atlanta Center
04:57PM 36.7814 -81.5378 256° West 182 209 10,100  Level Atlanta Center
04:59PM 36.7653 -81.6653 261° West 179 206 10,100  Level Atlanta Center
05:00PM 36.7539 -81.7225 256° West 179 206 10,100  Level Atlanta Center
05:01PM 36.7403 -81.7800 254° West 179 206 10,100  Level Atlanta Center
05:02PM 36.7289 -81.8372 256° West 179 206 10,100  Level Atlanta Center
05:03PM 36.7172 -81.8944 256° West 179 206 10,100  Level Atlanta Center
05:04PM 36.7058 -81.9517 256° West 179 206 10,100  Level Atlanta Center
05:05PM 36.7047 -82.0089 269° West 179 206 10,100  Level Atlanta Center
05:06PM 36.7014 -82.0658 266° West 179 206 10,100  Level Atlanta Center
05:07PM 36.6897 -82.1231 256° West 179 206 10,100  Level Atlanta Center
05:08PM 36.6761 -82.1828 254° West 179 206 10,100  Level Atlanta Center
05:09PM 36.6667 -82.2425 259° West 184 212 10,100  Level Atlanta Center
05:10PM 36.6550 -82.2972 255° West 179 206 10,100  Level Atlanta Center
05:11PM 36.6431 -82.3544 255° West 179 206 10,100  Level Atlanta Center
05:12PM 36.6272 -82.4064 249° West 168 193 10,100  Level Atlanta Center
05:13PM 36.6092 -82.4586 247° West 168 193 10,100  Level Atlanta Center
05:14PM 36.5931 -82.5158 251° West 173 199 10,100  Level Atlanta Center
05:15PM 36.5833 -82.5728 258° West 173 199 10,100  Level Atlanta Center
05:16PM 36.5800 -82.6272 266° West 162 186 10,100  Level Atlanta Center
05:17PM 36.5867 -82.6814 279° West 162 186 10,100  Level Atlanta Center
05:18PM 36.5894 -82.7356 274° West 162 186 10,100  Level Atlanta Center
05:19PM 36.5753 -82.7850 250° West 157 181 10,100  Level Atlanta Center
05:20PM 36.5569 -82.8344 245° Southwest 163 188 10,100  Level Atlanta Center
05:21PM 36.5367 -82.8864 244° Southwest 163 188 10,100  Level Atlanta Center
05:22PM 36.5164 -82.9306 240° Southwest 168 193 10,100  Level Atlanta Center
05:23PM 36.4958 -82.9800 243° Southwest 168 193 10,100  Level Atlanta Center
05:24PM 36.4753 -83.0267 241° Southwest 163 188 10,100  Level Atlanta Center
05:25PM 36.4528 -83.0761 241° Southwest 163 188 10,100  Level Atlanta Center
05:26PM 36.4344 -83.1228 244° Southwest 163 188 10,100  Level Atlanta Center
05:27PM 36.4119 -83.1719 240° Southwest 163 188 10,100 -60 Level Atlanta Center
05:28PM 36.3914 -83.2186 241° Southwest 163 188 10,000 -60 Descending Atlanta Center
05:30PM 36.3597 -83.2905 241° Southwest  Level FlightAware Approximate
05:37PM 36.2042 -83.6302 240° Southwest  Level FlightAware Approximate
05:38PM 36.1819 -83.6786 240° Southwest  Level FlightAware Approximate
05:39PM 36.1596 -83.7270 240° Southwest  Level FlightAware Approximate
05:40PM 36.1373 -83.7754 240° Southwest  Level FlightAware Approximate
05:41PM 36.1150 -83.8237 240° Southwest  Level FlightAware Approximate
05:42PM 36.0926 -83.8721 240° Southwest  Level FlightAware Approximate
05:43PM 36.0703 -83.9204 240° Southwest  Level FlightAware Approximate
05:44PM 36.0479 -83.9686 240° Southwest  Level FlightAware Approximate
05:45PM 36.0258 -84.0171 241° Southwest  Level FlightAware Approximate
05:46PM 36.0041 -84.0658 241° Southwest  Level FlightAware Approximate
05:47PM 35.9825 -84.1146 241° Southwest  Level FlightAware Approximate
05:48PM 35.9608 -84.1633 241° Southwest  Level FlightAware Approximate
05:49PM 35.9391 -84.2120 241° Southwest  Level FlightAware Approximate
05:50PM 35.9174 -84.2606 241° Southwest  Level FlightAware Approximate
05:51PM 35.8957 -84.3092 241° Southwest  Level FlightAware Approximate
05:51PM 35.8994 -84.3386 241° Southwest 168 193 10,000  Level Atlanta Center
05:52PM 35.8739 -84.3578 241° Southwest  Level FlightAware Approximate
05:52PM 35.8764 -84.3872 240° Southwest 163 188 10,000  Level Atlanta Center
05:53PM 35.8521 -84.4064 241° Southwest  Level FlightAware Approximate
05:53PM 35.8553 -84.4358 242° Southwest 163 188 10,000  Level Atlanta Center
05:54PM 35.8303 -84.4550 241° Southwest  Level FlightAware Approximate
05:54PM 35.8322 -84.4844 240° Southwest 163 188 10,000  Level Atlanta Center
05:55PM 35.8085 -84.5035 241° Southwest  Level FlightAware Approximate
05:55PM 35.8111 -84.5331 242° Southwest 163 188 10,000  Level Atlanta Center
05:56PM 35.7900 -84.5814 242° Southwest 163 188 10,100  Climbing Atlanta Center
05:57PM 35.7711 -84.6247 242° Southwest 163 188 10,100  Level Atlanta Center
05:58PM 35.7542 -84.6811 250° West 163 188 10,100 -60 Level Atlanta Center
05:59PM 35.7433 -84.7347 256° West 163 188 10,000  Descending Atlanta Center
06:00PM 35.7411 -84.7883 267° West 163 188 10,100  Climbing Atlanta Center
06:01PM 35.7364 -84.8447 264° West 163 188 10,100  Level Atlanta Center
06:02PM 35.7300 -84.9008 262° West 163 188 10,100  Level Atlanta Center
06:03PM 35.7253 -84.9544 264° West 163 188 10,100  Level Atlanta Center
06:04PM 35.7164 -85.0133 259° West 163 188 10,100  Level Atlanta Center
06:06PM 35.7061 -85.1214 263° West 161 185 10,100  Level Memphis Center
06:07PM 35.7000 -85.1753 262° West 161 185 10,100  Level Memphis Center
06:08PM 35.6961 -85.2319 265° West 161 185 10,100  Level Memphis Center
06:09PM 35.7006 -85.2878 276° West 161 185 10,100  Level Memphis Center
06:10PM 35.7006 -85.3442 270° West 161 185 10,100  Level Memphis Center
06:11PM 35.6986 -85.3978 267° West 161 185 10,100  Level Memphis Center
06:12PM 35.6989 -85.4542 270° West 161 185 10,100  Level Memphis Center
06:13PM 35.6989 -85.5103 270° West 161 185 10,100  Level Memphis Center
06:14PM 35.7031 -85.5636 276° West 161 185 10,100  Level Memphis Center
06:15PM 35.7053 -85.6197 273° West 161 185 10,100  Level Memphis Center
06:16PM 35.6947 -85.6717 256° West 161 185 10,100  Level Memphis Center
06:17PM 35.6733 -85.7161 239° Southwest 161 185 10,100  Level Memphis Center
06:18PM 35.6458 -85.7611 233° Southwest 166 191 10,100  Level Memphis Center
06:19PM 35.6164 -85.8061 231° Southwest 171 197 10,100 -60 Level Memphis Center
06:20PM 35.5822 -85.8439 222° Southwest 171 197 10,000 -60 Descending Memphis Center
06:21PM 35.5481 -85.8789 220° Southwest 171 197 10,000  Level Memphis Center
06:22PM 35.5078 -85.9192 219° Southwest 171 197 10,000  Level Memphis Center
06:23PM 35.4756 -85.9542 221° Southwest 171 197 10,000  Level Memphis Center
06:24PM 35.4414 -85.9892 220° Southwest 171 197 10,000  Level Memphis Center
06:25PM 35.4072 -86.0214 218° Southwest 171 197 10,000  Level Memphis Center
06:26PM 35.3708 -86.0564 218° Southwest 171 197 10,000  Level Memphis Center
06:27PM 35.3367 -86.0914 220° Southwest 171 197 10,000  Level Memphis Center
06:28PM 35.3022 -86.1261 219° Southwest 171 197 10,000  Level Memphis Center
06:29PM 35.2678 -86.1583 217° Southwest 171 197 10,000 -180 Level Memphis Center
06:30PM 35.2294 -86.1958 219° Southwest 176 203 9,700 -600 Descending Memphis Center
06:31PM 35.1911 -86.2358 220° Southwest 187 215 8,900 -840 Descending Memphis Center
06:32PM 35.1508 -86.2761 219° Southwest 197 227 8,100 -900 Descending Memphis Center
06:33PM 35.1106 -86.3161 219° Southwest 202 232 7,100 -960 Descending Memphis Center
06:34PM 35.0681 -86.3586 219° Southwest 202 232 6,200 -1,560 Descending Memphis Center
06:35PM 35.0256 -86.3986 218° Southwest 202 232 4,000 -1,140 Descending Memphis Center
06:36PM 34.9831 -86.4414 220° Southwest 202 232 4,000 -60 Level Memphis Center
06:37PM 34.9425 -86.4761 215° Southwest 197 227 3,900  Descending Memphis Center
06:38PM 34.8981 -86.5236 221° Southwest 197 227 4,000  Climbing Memphis Center
06:39PM 34.8617 -86.5633 222° Southwest 197 227 4,000  Level Memphis Center
06:40PM 34.8233 -86.6031 220° Southwest 197 227 4,000  Level Memphis Center
06:41PM 34.7828 -86.6428 219° Southwest 197 227 4,000  Level Memphis Center
06:43PM 34.7828 -86.6428 141° Southeast 197 227 4,000  Level Memphis Center
06:45PM 34.7828 -86.6428 141° Southeast 197 227 4,000  Level Memphis Center
06:48PM 34.8177 -86.5946 49° Northeast  Level FlightAware Approximate
06:55PM 34.8500 -86.5500 39° Northeast  Level FlightAware Approximate
06:56PM 34.8614 -86.5575 39° Northeast  Level Estimated
06:57PM 34.8614 -86.5575 39° Northeast  Level Estimated
06:58PM 34.8614 -86.5575 39° Northeast  Level Estimated